Time;durP1;ratioP1;P1;durP2;ratioP2;P2;SDS_P1;SDS_P2;PMS_P1;PMS_P2;Temp;Humidity;BMP_temperature;BMP_pressure;BME280_temperature;BME280_humidity;BME280_pressure;Samples;Min_cycle;Max_cycle;Signal;HPM_P1;HPM_P2
2021/09/05 00:00:23;;;;;;;22.48;11.50;;;;;;;;;;4997459;28;21526;-71
2021/09/05 00:02:48;;;;;;;21.25;11.43;;;;;;;;;;4987967;28;20630;-71
2021/09/05 00:05:14;;;;;;;23.85;12.50;;;;;;;;;;4993837;28;20600;-71
2021/09/05 00:07:39;;;;;;;18.90;11.05;;;;;;;;;;4986706;28;20655;-73
2021/09/05 00:10:06;;;;;;;24.30;11.85;;;;;;;;;;4992920;28;20206;-72
2021/09/05 00:12:31;;;;;;;25.23;11.82;;;;;;;;;;4984938;28;20179;-72
2021/09/05 00:14:56;;;;;;;24.08;12.30;;;;;;;;;;4992296;28;20199;-72
2021/09/05 00:17:22;;;;;;;23.65;12.25;;;;;;;;;;4998023;28;20180;-72
2021/09/05 00:19:47;;;;;;;25.20;12.57;;;;;;;;;;4986095;28;20190;-72
2021/09/05 00:22:12;;;;;;;23.15;12.18;;;;;;;;;;4992938;28;20188;-73
2021/09/05 00:24:38;;;;;;;22.52;11.30;;;;;;;;;;4982402;28;20588;-72
2021/09/05 00:27:04;;;;;;;20.60;11.85;;;;;;;;;;5000003;28;20191;-72
2021/09/05 00:29:29;;;;;;;19.67;12.13;;;;;;;;;;4985362;28;20240;-71
2021/09/05 00:31:54;;;;;;;21.52;11.57;;;;;;;;;;4994459;28;20592;-72
2021/09/05 00:34:20;;;;;;;23.30;11.63;;;;;;;;;;4986744;28;20266;-72
2021/09/05 00:36:46;;;;;;;19.92;11.32;;;;;;;;;;4994208;28;21058;-72
2021/09/05 00:39:11;;;;;;;22.52;12.52;;;;;;;;;;5001432;28;20186;-72
2021/09/05 00:41:36;;;;;;;22.67;11.52;;;;;;;;;;4994141;28;20183;-72
2021/09/05 00:44:07;;;;;;;21.88;11.23;;;;;;;;;;4985541;28;20706;-72
2021/09/05 00:46:34;;;;;;;24.83;12.93;;;;;;;;;;4992900;28;20191;-72
2021/09/05 00:49:01;;;;;;;23.02;12.32;;;;;;;;;;4989582;28;20190;-72
2021/09/05 00:51:41;;;;;;;23.92;11.98;;;;;;;;;;4987172;28;20285;-72
2021/09/05 00:54:09;;;;;;;21.50;12.13;;;;;;;;;;4994739;28;20179;-72
2021/09/05 00:56:36;;;;;;;22.23;12.00;;;;;;;;;;4988010;28;20209;-72
2021/09/05 00:59:08;;;;;;;21.05;12.05;;;;;;;;;;4994246;28;20206;-72
2021/09/05 01:01:35;;;;;;;22.38;12.13;;;;;;;;;;4983874;28;20718;-72
2021/09/05 01:04:01;;;;;;;23.40;11.80;;;;;;;;;;4993707;28;20225;-72
2021/09/05 01:06:26;;;;;;;20.10;11.38;;;;;;;;;;4986389;28;20202;-72
2021/09/05 01:08:54;;;;;;;23.40;12.13;;;;;;;;;;4996897;28;20212;-72
2021/09/05 01:11:20;;;;;;;20.33;11.32;;;;;;;;;;4987632;28;20210;-72
2021/09/05 01:13:45;;;;;;;21.25;12.10;;;;;;;;;;4997570;28;20190;-72
2021/09/05 01:16:29;;;;;;;20.83;11.80;;;;;;;;;;4992095;28;20651;-72
2021/09/05 01:18:55;;;;;;;20.75;12.45;;;;;;;;;;4995326;28;20204;-72
2021/09/05 01:21:20;;;;;;;24.00;13.23;;;;;;;;;;4988816;28;24993;-72
2021/09/05 01:23:47;;;;;;;22.77;13.02;;;;;;;;;;4994185;28;20207;-72
2021/09/05 01:26:14;;;;;;;21.15;12.23;;;;;;;;;;4992635;28;20194;-72
2021/09/05 01:28:40;;;;;;;25.15;13.90;;;;;;;;;;4992505;28;20187;-72
2021/09/05 01:31:06;;;;;;;21.58;13.52;;;;;;;;;;4995597;28;20343;-72
2021/09/05 01:33:31;;;;;;;25.27;13.68;;;;;;;;;;4990084;28;20715;-72
2021/09/05 01:35:56;;;;;;;26.95;13.75;;;;;;;;;;4998880;28;20194;-72
2021/09/05 01:38:22;;;;;;;24.35;13.60;;;;;;;;;;4990531;28;20194;-73
2021/09/05 01:40:48;;;;;;;26.10;13.65;;;;;;;;;;4995178;28;20195;-72
2021/09/05 01:43:14;;;;;;;25.05;13.38;;;;;;;;;;4986998;28;20207;-72
2021/09/05 01:45:39;;;;;;;25.38;13.80;;;;;;;;;;4996017;28;20511;-72
2021/09/05 01:48:05;;;;;;;25.13;13.75;;;;;;;;;;4985926;28;20676;-72
2021/09/05 01:50:30;;;;;;;22.85;14.15;;;;;;;;;;4995915;28;20209;-72
2021/09/05 01:52:55;;;;;;;25.98;14.63;;;;;;;;;;4987092;28;20220;-71
2021/09/05 01:55:21;;;;;;;22.73;13.45;;;;;;;;;;4995834;28;20226;-73
2021/09/05 01:57:46;;;;;;;23.20;13.52;;;;;;;;;;4997353;28;20249;-73
2021/09/05 02:00:12;;;;;;;25.20;13.82;;;;;;;;;;4988934;28;20251;-72
2021/09/05 02:02:37;;;;;;;21.83;13.10;;;;;;;;;;4998804;28;21483;-71
2021/09/05 02:05:03;;;;;;;21.95;12.93;;;;;;;;;;4988608;28;20230;-71
2021/09/05 02:07:28;;;;;;;21.30;12.48;;;;;;;;;;4996713;28;20198;-72
2021/09/05 02:09:53;;;;;;;20.48;11.57;;;;;;;;;;4985885;28;20187;-72
2021/09/05 02:12:20;;;;;;;22.50;12.40;;;;;;;;;;4996430;28;20194;-72
2021/09/05 02:14:45;;;;;;;23.88;13.50;;;;;;;;;;4988340;28;20195;-72
2021/09/05 02:17:11;;;;;;;22.48;12.48;;;;;;;;;;5002035;28;20556;-72
2021/09/05 02:19:36;;;;;;;24.90;13.63;;;;;;;;;;4988100;28;20783;-72
2021/09/05 02:22:02;;;;;;;21.85;12.23;;;;;;;;;;4993510;28;20190;-72
2021/09/05 02:24:27;;;;;;;27.08;13.68;;;;;;;;;;4985581;28;20578;-72
2021/09/05 02:26:52;;;;;;;28.13;13.07;;;;;;;;;;4995638;28;20538;-72
2021/09/05 02:29:18;;;;;;;22.92;12.68;;;;;;;;;;4994510;28;20186;-72
2021/09/05 02:31:43;;;;;;;27.08;13.60;;;;;;;;;;4988720;28;21302;-72
2021/09/05 02:34:09;;;;;;;23.80;13.52;;;;;;;;;;4996173;28;20346;-72
2021/09/05 02:36:34;;;;;;;25.73;13.50;;;;;;;;;;4988625;28;20198;-72
2021/09/05 02:38:59;;;;;;;26.33;13.57;;;;;;;;;;4994806;28;20187;-71
2021/09/05 02:41:25;;;;;;;24.35;13.73;;;;;;;;;;4989366;28;20194;-72
2021/09/05 02:43:50;;;;;;;28.42;14.57;;;;;;;;;;4995440;28;20210;-72
2021/09/05 02:46:15;;;;;;;27.92;13.27;;;;;;;;;;4982967;28;20603;-71
2021/09/05 02:48:41;;;;;;;25.20;14.82;;;;;;;;;;4991003;28;20191;-71
2021/09/05 02:51:08;;;;;;;22.92;13.48;;;;;;;;;;4986727;28;20202;-72
2021/09/05 02:53:33;;;;;;;28.80;14.07;;;;;;;;;;4995131;28;20194;-72
2021/09/05 02:55:58;;;;;;;26.42;13.25;;;;;;;;;;4989232;28;20188;-71
2021/09/05 02:58:24;;;;;;;26.83;14.80;;;;;;;;;;4991991;28;20272;-71
2021/09/05 03:00:49;;;;;;;23.75;14.75;;;;;;;;;;4995688;28;20264;-71
2021/09/05 03:03:14;;;;;;;28.20;15.07;;;;;;;;;;4988642;28;20211;-71
2021/09/05 03:05:40;;;;;;;24.35;13.93;;;;;;;;;;4996466;28;20203;-72
2021/09/05 03:08:05;;;;;;;23.38;14.25;;;;;;;;;;4985974;28;20640;-72
2021/09/05 03:10:31;;;;;;;23.17;13.43;;;;;;;;;;4993570;28;20625;-71
2021/09/05 03:12:56;;;;;;;25.65;14.20;;;;;;;;;;4986363;28;20183;-71
2021/09/05 03:15:22;;;;;;;26.52;14.13;;;;;;;;;;4993662;28;20230;-72
2021/09/05 03:17:47;;;;;;;28.98;15.68;;;;;;;;;;4985900;28;20240;-71
2021/09/05 03:20:12;;;;;;;26.42;14.00;;;;;;;;;;4995262;28;20200;-72
2021/09/05 03:22:38;;;;;;;28.42;15.90;;;;;;;;;;4986863;28;20194;-72
2021/09/05 03:25:03;;;;;;;26.55;13.88;;;;;;;;;;4993883;28;20283;-72
2021/09/05 03:27:29;;;;;;;21.58;12.48;;;;;;;;;;4989725;28;20904;-71
2021/09/05 03:29:54;;;;;;;28.55;14.63;;;;;;;;;;4990526;28;20551;-72
2021/09/05 03:32:19;;;;;;;24.60;13.23;;;;;;;;;;4995004;28;20251;-72
2021/09/05 03:34:45;;;;;;;24.65;13.23;;;;;;;;;;4988821;28;20714;-72
2021/09/05 03:37:10;;;;;;;24.83;13.65;;;;;;;;;;4994211;28;20191;-72
2021/09/05 03:39:35;;;;;;;23.83;12.95;;;;;;;;;;4989234;28;20237;-72
2021/09/05 03:42:01;;;;;;;23.45;13.13;;;;;;;;;;4991691;28;20643;-71
2021/09/05 03:44:26;;;;;;;28.02;12.82;;;;;;;;;;4985789;28;20203;-72
2021/09/05 03:46:51;;;;;;;26.65;13.38;;;;;;;;;;4993217;28;20719;-71
2021/09/05 03:49:17;;;;;;;23.08;13.35;;;;;;;;;;4987786;28;20207;-71
2021/09/05 03:51:42;;;;;;;22.80;12.90;;;;;;;;;;4991687;28;20191;-72
2021/09/05 03:54:08;;;;;;;22.10;12.90;;;;;;;;;;4987811;28;20244;-72
2021/09/05 03:56:33;;;;;;;27.08;14.60;;;;;;;;;;4994815;28;20651;-72
2021/09/05 03:59:02;;;;;;;24.17;15.02;;;;;;;;;;4991947;28;20210;-71
2021/09/05 04:01:29;;;;;;;28.63;16.02;;;;;;;;;;4987336;28;20213;-72
2021/09/05 04:03:54;;;;;;;24.08;14.63;;;;;;;;;;4992902;28;20236;-71
2021/09/05 04:06:20;;;;;;;26.58;13.98;;;;;;;;;;4988603;28;20195;-71
2021/09/05 04:08:48;;;;;;;26.98;15.50;;;;;;;;;;4993337;28;20254;-71
2021/09/05 04:11:14;;;;;;;30.10;15.48;;;;;;;;;;4988070;28;20230;-72
2021/09/05 04:13:39;;;;;;;28.53;15.57;;;;;;;;;;4994634;28;20206;-71
2021/09/05 04:16:05;;;;;;;30.13;15.43;;;;;;;;;;4986346;28;20190;-72
2021/09/05 04:18:31;;;;;;;26.57;15.73;;;;;;;;;;4992646;28;20174;-72
2021/09/05 04:20:56;;;;;;;33.43;15.67;;;;;;;;;;4986949;28;20721;-72
2021/09/05 04:23:21;;;;;;;29.58;16.13;;;;;;;;;;4995848;28;20651;-72
2021/09/05 04:25:47;;;;;;;28.58;16.05;;;;;;;;;;4986531;28;20223;-72
2021/09/05 04:28:12;;;;;;;29.25;15.80;;;;;;;;;;4997130;28;20213;-72
2021/09/05 04:30:37;;;;;;;25.58;14.63;;;;;;;;;;4995140;28;20226;-72
2021/09/05 04:33:04;;;;;;;27.45;15.95;;;;;;;;;;4986560;28;20305;-72
2021/09/05 04:35:29;;;;;;;29.13;15.13;;;;;;;;;;4994667;28;20187;-72
2021/09/05 04:37:55;;;;;;;26.20;15.30;;;;;;;;;;4988184;28;20610;-71
2021/09/05 04:40:20;;;;;;;27.40;16.05;;;;;;;;;;4997425;28;20234;-72
2021/09/05 04:42:45;;;;;;;32.25;16.00;;;;;;;;;;4988634;28;20242;-71
2021/09/05 04:45:11;;;;;;;28.63;16.10;;;;;;;;;;4996386;28;20262;-71
2021/09/05 04:47:36;;;;;;;25.15;15.10;;;;;;;;;;4991811;28;20223;-71
2021/09/05 04:50:02;;;;;;;27.65;15.65;;;;;;;;;;4997967;28;20282;-72
2021/09/05 04:52:28;;;;;;;27.58;16.05;;;;;;;;;;4990958;28;20389;-73
2021/09/05 04:54:53;;;;;;;31.08;14.98;;;;;;;;;;4995872;28;20285;-71
2021/09/05 04:57:18;;;;;;;27.48;15.15;;;;;;;;;;4989208;28;20205;-72
2021/09/05 04:59:44;;;;;;;29.77;15.82;;;;;;;;;;4995925;28;20191;-72
2021/09/05 05:02:09;;;;;;;28.88;15.63;;;;;;;;;;4998594;28;20196;-71
2021/09/05 05:04:34;;;;;;;31.65;16.73;;;;;;;;;;4989199;28;20593;-71
2021/09/05 05:07:00;;;;;;;27.60;15.15;;;;;;;;;;4998253;28;20194;-71
2021/09/05 05:09:25;;;;;;;26.50;15.23;;;;;;;;;;4991555;28;20348;-71
2021/09/05 05:11:50;;;;;;;25.35;14.57;;;;;;;;;;4998384;28;20674;-71
2021/09/05 05:14:16;;;;;;;24.80;14.63;;;;;;;;;;4989658;28;20795;-72
2021/09/05 05:16:41;;;;;;;24.25;13.88;;;;;;;;;;4996939;28;20186;-71
2021/09/05 05:19:06;;;;;;;24.98;14.50;;;;;;;;;;4993719;28;20278;-72
2021/09/05 05:21:32;;;;;;;28.17;14.38;;;;;;;;;;4993659;28;20233;-72
2021/09/05 05:23:59;;;;;;;23.67;14.10;;;;;;;;;;4988852;28;20218;-72
2021/09/05 05:26:28;;;;;;;25.48;14.73;;;;;;;;;;4993307;28;20216;-72
2021/09/05 05:28:55;;;;;;;29.73;15.02;;;;;;;;;;4994221;28;20220;-71
2021/09/05 05:31:20;;;;;;;27.40;15.30;;;;;;;;;;4991571;28;20210;-71
2021/09/05 05:33:46;;;;;;;24.20;13.90;;;;;;;;;;4995589;28;20581;-72
2021/09/05 05:36:11;;;;;;;25.70;13.68;;;;;;;;;;4986972;28;20550;-72
2021/09/05 05:38:38;;;;;;;25.13;13.82;;;;;;;;;;4998809;28;20701;-72
2021/09/05 05:41:03;;;;;;;21.50;13.25;;;;;;;;;;4984631;28;20209;-71
2021/09/05 05:43:28;;;;;;;24.27;14.20;;;;;;;;;;4994321;28;20215;-71
2021/09/05 05:45:54;;;;;;;24.13;14.65;;;;;;;;;;5000703;28;20241;-71
2021/09/05 05:48:19;;;;;;;26.80;14.93;;;;;;;;;;4994104;28;20789;-72
2021/09/05 05:50:47;;;;;;;29.90;16.05;;;;;;;;;;4987112;28;20589;-71
2021/09/05 05:53:13;;;;;;;25.70;15.35;;;;;;;;;;4996580;28;20179;-71
2021/09/05 05:55:38;;;;;;;26.88;16.25;;;;;;;;;;4985662;28;20191;-72
2021/09/05 05:58:03;;;;;;;33.70;17.70;;;;;;;;;;4993977;28;20570;-71
2021/09/05 06:00:30;;;;;;;29.35;17.25;;;;;;;;;;4993982;28;20265;-71
2021/09/05 06:02:56;;;;;;;35.67;20.02;;;;;;;;;;4992969;28;20214;-72
2021/09/05 06:05:21;;;;;;;41.92;21.40;;;;;;;;;;4993177;28;20585;-71
2021/09/05 06:07:47;;;;;;;39.38;19.65;;;;;;;;;;5000036;28;20202;-71
2021/09/05 06:10:13;;;;;;;41.90;20.85;;;;;;;;;;4991492;28;20332;-72
2021/09/05 06:12:38;;;;;;;43.75;22.77;;;;;;;;;;4986923;28;20278;-73
2021/09/05 06:15:04;;;;;;;50.13;26.48;;;;;;;;;;4993838;28;20194;-72
2021/09/05 06:17:29;;;;;;;46.10;24.30;;;;;;;;;;4987417;28;20194;-72
2021/09/05 06:19:55;;;;;;;41.45;24.58;;;;;;;;;;4996160;28;20187;-71
2021/09/05 06:22:20;;;;;;;49.17;24.90;;;;;;;;;;4986221;28;20191;-72
2021/09/05 06:24:45;;;;;;;48.95;25.20;;;;;;;;;;4993307;28;20540;-71
2021/09/05 06:27:11;;;;;;;46.72;26.05;;;;;;;;;;4990731;28;20191;-71
2021/09/05 06:29:36;;;;;;;47.15;25.05;;;;;;;;;;4302414;28;10000825;-71
2021/09/05 06:32:02;;;;;;;44.58;24.02;;;;;;;;;;4992861;28;20535;-72
2021/09/05 06:34:28;;;;;;;42.10;23.63;;;;;;;;;;4983522;28;20336;-71
2021/09/05 06:36:53;;;;;;;45.08;24.20;;;;;;;;;;4992460;28;20278;-72
2021/09/05 06:39:18;;;;;;;39.05;22.10;;;;;;;;;;4982257;28;20186;-72
2021/09/05 06:41:44;;;;;;;40.60;23.55;;;;;;;;;;4993265;28;20344;-72
2021/09/05 06:44:09;;;;;;;42.58;24.75;;;;;;;;;;4984501;28;20225;-71
2021/09/05 06:46:34;;;;;;;41.17;22.15;;;;;;;;;;4991444;28;20241;-72
2021/09/05 06:49:00;;;;;;;38.95;23.58;;;;;;;;;;4987933;28;20198;-71
2021/09/05 06:51:25;;;;;;;38.22;23.05;;;;;;;;;;4994542;28;20225;-71
2021/09/05 06:53:50;;;;;;;40.80;23.08;;;;;;;;;;4984497;28;20519;-71
2021/09/05 06:56:16;;;;;;;34.45;22.27;;;;;;;;;;4993959;28;20325;-70
2021/09/05 06:58:41;;;;;;;38.28;21.70;;;;;;;;;;4984524;28;20919;-71
2021/09/05 07:01:07;;;;;;;35.55;21.30;;;;;;;;;;4994061;28;20180;-72
2021/09/05 07:03:32;;;;;;;37.33;20.33;;;;;;;;;;4992963;28;20250;-72
2021/09/05 07:05:58;;;;;;;39.88;22.10;;;;;;;;;;4985131;28;20331;-71
2021/09/05 07:08:23;;;;;;;33.33;21.42;;;;;;;;;;4988423;28;20183;-72
2021/09/05 07:10:48;;;;;;;36.70;22.30;;;;;;;;;;4984114;28;20215;-71
2021/09/05 07:13:14;;;;;;;33.03;21.38;;;;;;;;;;4994794;28;20190;-71
2021/09/05 07:15:39;;;;;;;31.75;22.13;;;;;;;;;;4989601;28;20198;-71
2021/09/05 07:18:05;;;;;;;37.72;22.50;;;;;;;;;;4996663;28;20198;-72
2021/09/05 07:20:31;;;;;;;32.53;20.85;;;;;;;;;;4987480;28;20192;-71
2021/09/05 07:22:56;;;;;;;34.47;21.50;;;;;;;;;;4997664;28;20293;-71
2021/09/05 07:25:23;;;;;;;34.72;18.92;;;;;;;;;;4985373;28;21848;-70
2021/09/05 07:27:49;;;;;;;34.90;18.73;;;;;;;;;;4994254;28;20217;-71
2021/09/05 07:30:15;;;;;;;34.67;19.13;;;;;;;;;;4646563;28;10000139;-70
2021/09/05 07:32:41;;;;;;;26.20;17.52;;;;;;;;;;4988538;28;20190;-71
2021/09/05 07:35:07;;;;;;;31.90;18.02;;;;;;;;;;4991449;28;20581;-71
2021/09/05 07:37:33;;;;;;;27.23;16.77;;;;;;;;;;4983411;28;20209;-73
2021/09/05 07:39:58;;;;;;;26.50;15.80;;;;;;;;;;4993702;28;20242;-70
2021/09/05 07:42:24;;;;;;;24.70;16.08;;;;;;;;;;4986128;28;20196;-71
2021/09/05 07:44:50;;;;;;;24.50;15.82;;;;;;;;;;4988460;28;20294;-70
2021/09/05 07:47:15;;;;;;;28.48;15.75;;;;;;;;;;4985125;28;20240;-71
2021/09/05 07:49:40;;;;;;;27.20;16.30;;;;;;;;;;4992207;28;20281;-72
2021/09/05 07:52:07;;;;;;;26.48;16.30;;;;;;;;;;4984805;28;20198;-73
2021/09/05 07:54:33;;;;;;;29.20;16.08;;;;;;;;;;4991906;28;20863;-72
2021/09/05 07:56:58;;;;;;;24.08;14.57;;;;;;;;;;4987510;28;20218;-72
2021/09/05 07:59:23;;;;;;;27.02;16.50;;;;;;;;;;4991060;28;20352;-72
2021/09/05 08:01:49;;;;;;;22.05;15.32;;;;;;;;;;4993727;28;20178;-71
2021/09/05 08:04:14;;;;;;;24.65;14.90;;;;;;;;;;4986823;28;20248;-72
2021/09/05 08:06:39;;;;;;;21.52;14.85;;;;;;;;;;4992602;28;20195;-73
2021/09/05 08:09:05;;;;;;;25.98;15.02;;;;;;;;;;4986159;28;20190;-73
2021/09/05 08:11:30;;;;;;;24.08;14.25;;;;;;;;;;4992672;28;20182;-73
2021/09/05 08:13:55;;;;;;;24.83;15.40;;;;;;;;;;4990346;28;20195;-71
2021/09/05 08:16:21;;;;;;;24.58;14.65;;;;;;;;;;4999237;28;20272;-72
2021/09/05 08:18:46;;;;;;;23.67;14.68;;;;;;;;;;4989648;28;20701;-72
2021/09/05 08:21:11;;;;;;;22.67;14.13;;;;;;;;;;5000476;28;20206;-72
2021/09/05 08:23:38;;;;;;;26.85;14.63;;;;;;;;;;4994019;28;20351;-72
2021/09/05 08:26:05;;;;;;;22.90;14.43;;;;;;;;;;5002006;28;20330;-72
2021/09/05 08:28:32;;;;;;;21.48;14.45;;;;;;;;;;4993877;28;20280;-71
2021/09/05 08:30:57;;;;;;;24.27;14.02;;;;;;;;;;5001617;28;20240;-72
2021/09/05 08:33:23;;;;;;;21.90;14.27;;;;;;;;;;4997822;28;20552;-69
2021/09/05 08:35:48;;;;;;;22.42;13.70;;;;;;;;;;4991827;28;20206;-73
2021/09/05 08:38:14;;;;;;;25.30;15.80;;;;;;;;;;4999311;28;20832;-72
2021/09/05 08:40:43;;;;;;;22.50;14.10;;;;;;;;;;4991548;28;20321;-69
2021/09/05 08:43:09;;;;;;;22.77;14.88;;;;;;;;;;4650604;28;9999881;-72
2021/09/05 08:45:36;;;;;;;22.83;13.93;;;;;;;;;;4988624;28;20189;-70
2021/09/05 08:48:03;;;;;;;20.98;13.18;;;;;;;;;;4996162;28;20698;-73
2021/09/05 08:50:29;;;;;;;25.75;14.02;;;;;;;;;;4987144;28;20194;-68
2021/09/05 08:52:55;;;;;;;20.75;13.52;;;;;;;;;;4992842;28;20194;-72
2021/09/05 08:55:20;;;;;;;22.75;13.60;;;;;;;;;;4986175;28;20252;-70
2021/09/05 08:57:46;;;;;;;19.45;12.85;;;;;;;;;;4997145;28;20223;-70
2021/09/05 09:00:12;;;;;;;20.83;13.23;;;;;;;;;;4994292;28;20303;-72
2021/09/05 09:02:52;;;;;;;22.30;12.98;;;;;;;;;;4995964;28;20195;-72
2021/09/05 09:05:31;;;;;;;19.58;11.48;;;;;;;;;;4996511;28;20235;-73
2021/09/05 09:08:05;;;;;;;22.13;12.18;;;;;;;;;;4999410;28;20206;-72
2021/09/05 09:10:31;;;;;;;21.27;12.30;;;;;;;;;;4997194;28;20201;-72
2021/09/05 09:12:56;;;;;;;22.45;12.93;;;;;;;;;;4992028;28;20663;-67
2021/09/05 09:15:32;;;;;;;21.25;13.10;;;;;;;;;;5000623;28;20215;-69
2021/09/05 09:18:04;;;;;;;21.88;12.57;;;;;;;;;;4995726;28;20178;-72
2021/09/05 09:20:41;;;;;;;20.98;12.05;;;;;;;;;;5014036;28;20191;-73
2021/09/05 09:23:13;;;;;;;24.75;12.10;;;;;;;;;;4991854;28;20264;-70
2021/09/05 09:25:54;;;;;;;23.65;12.45;;;;;;;;;;4999615;28;20757;-72
2021/09/05 09:28:34;;;;;;;23.20;12.43;;;;;;;;;;4992288;28;20308;-71
2021/09/05 09:31:16;;;;;;;21.17;12.30;;;;;;;;;;4994532;28;20654;-71
2021/09/05 09:33:46;;;;;;;19.30;12.60;;;;;;;;;;4991450;28;20182;-70
2021/09/05 09:36:17;;;;;;;19.95;13.07;;;;;;;;;;5003898;28;20193;-71
2021/09/05 09:38:44;;;;;;;22.75;12.65;;;;;;;;;;4991693;28;20194;-72
2021/09/05 09:41:13;;;;;;;17.38;11.68;;;;;;;;;;4999111;28;20628;-71
2021/09/05 09:43:56;;;;;;;21.90;12.07;;;;;;;;;;4991917;28;20214;-71
2021/09/05 09:46:28;;;;;;;17.33;11.70;;;;;;;;;;4999767;28;20257;-72
2021/09/05 09:48:57;;;;;;;16.83;11.73;;;;;;;;;;4990674;28;20218;-74
2021/09/05 09:51:23;;;;;;;16.60;11.70;;;;;;;;;;4994906;28;20202;-70
2021/09/05 09:53:49;;;;;;;16.45;11.48;;;;;;;;;;4990630;28;20183;-70
2021/09/05 09:56:20;;;;;;;23.15;11.75;;;;;;;;;;4996680;28;20663;-72
2021/09/05 09:58:46;;;;;;;16.52;10.82;;;;;;;;;;4992739;28;20230;-73
2021/09/05 10:01:21;;;;;;;16.88;10.38;;;;;;;;;;5001337;28;20209;-69
2021/09/05 10:03:48;;;;;;;17.00;11.43;;;;;;;;;;4987972;28;20218;-71
2021/09/05 10:06:13;;;;;;;17.85;10.68;;;;;;;;;;4994361;28;20234;-75
2021/09/05 10:08:49;;;;;;;18.08;10.77;;;;;;;;;;4998239;28;20641;-73
2021/09/05 10:11:17;;;;;;;19.98;12.20;;;;;;;;;;4998195;28;20197;-67
2021/09/05 10:13:43;;;;;;;17.58;10.77;;;;;;;;;;4995327;28;20538;-71
2021/09/05 10:16:11;;;;;;;17.48;10.70;;;;;;;;;;4989636;28;20217;-73
2021/09/05 10:18:43;;;;;;;16.20;10.52;;;;;;;;;;4996108;28;20187;-72
2021/09/05 10:21:08;;;;;;;18.50;10.80;;;;;;;;;;4986535;28;20627;-71
2021/09/05 10:23:36;;;;;;;14.85;11.07;;;;;;;;;;4998107;28;20195;-72
2021/09/05 10:26:09;;;;;;;20.73;11.98;;;;;;;;;;4987809;28;20632;-72
2021/09/05 10:28:37;;;;;;;17.60;10.77;;;;;;;;;;4994580;28;20175;-70
2021/09/05 10:31:02;;;;;;;17.67;10.95;;;;;;;;;;4988311;28;20253;-72
2021/09/05 10:33:36;;;;;;;21.27;11.75;;;;;;;;;;4996636;28;20187;-71
2021/09/05 10:36:13;;;;;;;20.25;11.07;;;;;;;;;;4986218;28;20186;-69
2021/09/05 10:38:40;;;;;;;16.83;10.88;;;;;;;;;;4995998;28;20187;-74
2021/09/05 10:41:13;;;;;;;20.27;10.80;;;;;;;;;;4991251;28;20642;-71
2021/09/05 10:43:48;;;;;;;17.98;10.95;;;;;;;;;;4996332;28;20207;-68
2021/09/05 10:46:19;;;;;;;14.15;10.45;;;;;;;;;;4987581;28;20226;-74
2021/09/05 10:48:58;;;;;;;17.90;11.00;;;;;;;;;;4996491;28;20265;-74
2021/09/05 10:51:31;;;;;;;15.77;9.65;;;;;;;;;;4991614;28;20352;-71
2021/09/05 10:54:08;;;;;;;15.25;9.80;;;;;;;;;;4995854;28;20190;-68
2021/09/05 10:56:41;;;;;;;20.33;11.73;;;;;;;;;;4987118;28;20284;-75
2021/09/05 10:59:09;;;;;;;17.70;10.90;;;;;;;;;;4994002;28;20218;-72
2021/09/05 11:01:36;;;;;;;16.33;10.88;;;;;;;;;;4987331;28;20268;-70
2021/09/05 11:04:16;;;;;;;18.27;10.68;;;;;;;;;;4990080;28;20722;-72
2021/09/05 11:06:44;;;;;;;16.27;10.30;;;;;;;;;;4994009;28;20185;-72
2021/09/05 11:09:24;;;;;;;14.45;9.35;;;;;;;;;;4985590;28;20202;-74
2021/09/05 11:11:56;;;;;;;14.18;10.70;;;;;;;;;;4994641;28;20175;-71
2021/09/05 11:14:49;;;;;;;20.67;11.48;;;;;;;;;;4987366;28;20183;-68
2021/09/05 11:17:19;;;;;;;21.60;10.73;;;;;;;;;;4997006;28;20713;-72
2021/09/05 11:19:52;;;;;;;15.95;10.88;;;;;;;;;;4987369;28;20242;-74
2021/09/05 11:22:19;;;;;;;15.40;9.63;;;;;;;;;;4989934;28;20277;-75
2021/09/05 11:24:45;;;;;;;16.38;10.68;;;;;;;;;;4986872;28;20249;-75
2021/09/05 11:27:15;;;;;;;16.67;10.48;;;;;;;;;;4993075;28;20219;-72
2021/09/05 11:29:41;;;;;;;14.57;9.55;;;;;;;;;;4986638;28;20279;-72
2021/09/05 11:32:09;;;;;;;13.00;9.07;;;;;;;;;;4994396;28;20184;-76
2021/09/05 11:34:36;;;;;;;14.68;9.52;;;;;;;;;;4985770;28;20254;-74
2021/09/05 11:37:02;;;;;;;14.07;10.40;;;;;;;;;;4993670;28;20278;-73
2021/09/05 11:39:27;;;;;;;15.85;10.80;;;;;;;;;;4986974;28;20285;-74
2021/09/05 11:41:53;;;;;;;18.40;10.95;;;;;;;;;;4994952;28;20183;-70
2021/09/05 11:44:35;;;;;;;17.67;11.02;;;;;;;;;;4986593;28;20293;-71
2021/09/05 11:47:10;;;;;;;17.77;10.50;;;;;;;;;;4994530;28;20183;-70
2021/09/05 11:49:46;;;;;;;17.08;10.00;;;;;;;;;;4986855;28;20195;-73
2021/09/05 11:52:11;;;;;;;16.33;9.68;;;;;;;;;;4992521;28;20190;-71
2021/09/05 11:54:37;;;;;;;12.90;9.40;;;;;;;;;;4985418;28;20233;-71
2021/09/05 11:57:03;;;;;;;16.27;9.70;;;;;;;;;;4994020;28;20658;-75
2021/09/05 11:59:28;;;;;;;17.95;9.88;;;;;;;;;;4993561;28;20214;-73
2021/09/05 12:01:54;;;;;;;14.73;9.27;;;;;;;;;;4984611;28;20195;-72
2021/09/05 12:04:20;;;;;;;14.98;9.43;;;;;;;;;;4991861;28;20709;-75
2021/09/05 12:06:46;;;;;;;14.38;9.55;;;;;;;;;;4983580;28;20203;-69
2021/09/05 12:09:12;;;;;;;15.25;9.48;;;;;;;;;;4993863;28;20666;-76
2021/09/05 12:11:54;;;;;;;16.17;9.52;;;;;;;;;;5003077;28;20193;-71
2021/09/05 12:14:34;;;;;;;13.30;9.48;;;;;;;;;;4993658;28;20269;-73
2021/09/05 12:17:20;;;;;;;13.98;8.50;;;;;;;;;;4987554;28;20252;-73
2021/09/05 12:19:57;;;;;;;14.02;9.65;;;;;;;;;;4994023;28;20218;-72
2021/09/05 12:22:23;;;;;;;15.38;9.63;;;;;;;;;;4988181;28;20210;-73
2021/09/05 12:24:56;;;;;;;11.35;7.75;;;;;;;;;;4993865;28;20199;-68
2021/09/05 12:27:21;;;;;;;13.88;8.23;;;;;;;;;;4989349;28;20194;-69
2021/09/05 12:29:53;;;;;;;12.32;8.56;;;;;;;;;;4861212;28;10001326;-72
2021/09/05 12:32:18;;;;;;;11.98;8.25;;;;;;;;;;4981534;28;20435;-74
2021/09/05 12:34:45;;;;;;;13.23;8.43;;;;;;;;;;4990886;28;20195;-75
2021/09/05 12:37:18;;;;;;;15.32;8.75;;;;;;;;;;4985023;28;20272;-73
2021/09/05 12:39:45;;;;;;;10.65;7.55;;;;;;;;;;4984748;28;20606;-74
2021/09/05 12:42:12;;;;;;;14.73;7.90;;;;;;;;;;4984225;28;20215;-74
2021/09/05 12:44:50;;;;;;;13.05;7.95;;;;;;;;;;4992756;28;20843;-73
2021/09/05 12:47:27;;;;;;;12.43;8.38;;;;;;;;;;4985241;28;20193;-75
2021/09/05 12:49:55;;;;;;;13.60;8.18;;;;;;;;;;4993627;28;20705;-75
2021/09/05 12:52:25;;;;;;;10.32;7.88;;;;;;;;;;4981819;28;20206;-76
2021/09/05 12:54:51;;;;;;;10.68;7.53;;;;;;;;;;4993381;28;20197;-75
2021/09/05 12:57:16;;;;;;;11.93;7.20;;;;;;;;;;4989843;28;20195;-74
2021/09/05 12:59:41;;;;;;;11.10;7.10;;;;;;;;;;4983973;28;20187;-73
2021/09/05 13:02:07;;;;;;;13.52;7.32;;;;;;;;;;4992876;28;20210;-71
2021/09/05 13:04:32;;;;;;;12.40;7.75;;;;;;;;;;4983333;28;20565;-74
2021/09/05 13:06:58;;;;;;;13.27;7.57;;;;;;;;;;4991947;28;20545;-76
2021/09/05 13:09:23;;;;;;;13.90;6.90;;;;;;;;;;4988454;28;20281;-75
2021/09/05 13:11:48;;;;;;;10.60;6.68;;;;;;;;;;4998156;28;20187;-76
2021/09/05 13:14:14;;;;;;;12.52;7.53;;;;;;;;;;4983988;28;20203;-76
2021/09/05 13:16:39;;;;;;;11.73;7.50;;;;;;;;;;4994427;28;20198;-75
2021/09/05 13:19:07;;;;;;;11.23;6.70;;;;;;;;;;4986492;28;20278;-75
2021/09/05 13:21:33;;;;;;;11.43;7.60;;;;;;;;;;4992211;28;20777;-75
2021/09/05 13:23:58;;;;;;;12.32;7.78;;;;;;;;;;4987565;28;20217;-71
2021/09/05 13:26:24;;;;;;;14.02;6.93;;;;;;;;;;4991754;28;20277;-72
2021/09/05 13:28:54;;;;;;;11.40;6.82;;;;;;;;;;4995751;28;20198;-73
2021/09/05 13:31:28;;;;;;;10.90;7.53;;;;;;;;;;4988940;28;20199;-71
2021/09/05 13:33:54;;;;;;;13.93;7.28;;;;;;;;;;4993510;28;20191;-74
2021/09/05 13:36:19;;;;;;;10.55;6.45;;;;;;;;;;4988048;28;20669;-76
2021/09/05 13:38:44;;;;;;;11.85;6.88;;;;;;;;;;4994445;28;20275;-71
2021/09/05 13:41:10;;;;;;;13.65;7.93;;;;;;;;;;4987005;28;20272;-73
2021/09/05 13:43:35;;;;;;;12.43;7.00;;;;;;;;;;4995894;28;21348;-71
2021/09/05 13:46:00;;;;;;;11.95;7.47;;;;;;;;;;4990116;28;20705;-71
2021/09/05 13:48:26;;;;;;;11.70;7.30;;;;;;;;;;4993501;28;20294;-73
2021/09/05 13:50:51;;;;;;;9.50;6.35;;;;;;;;;;4987945;28;20218;-73
2021/09/05 13:53:16;;;;;;;12.95;7.45;;;;;;;;;;4994143;28;20222;-71
2021/09/05 13:55:42;;;;;;;10.02;7.18;;;;;;;;;;4990227;28;20595;-73
2021/09/05 13:58:07;;;;;;;10.85;6.80;;;;;;;;;;4993972;28;20221;-73
2021/09/05 14:00:33;;;;;;;9.80;6.90;;;;;;;;;;4995332;28;20277;-73
2021/09/05 14:02:59;;;;;;;10.07;6.57;;;;;;;;;;4984857;28;20647;-71
2021/09/05 14:05:25;;;;;;;11.32;7.45;;;;;;;;;;4996626;28;20687;-71
2021/09/05 14:07:50;;;;;;;10.60;6.97;;;;;;;;;;4986656;28;20210;-74
2021/09/05 14:10:15;;;;;;;9.30;6.75;;;;;;;;;;4997631;28;20190;-73
2021/09/05 14:12:41;;;;;;;8.68;6.82;;;;;;;;;;4986794;28;20591;-73
2021/09/05 14:15:06;;;;;;;9.80;6.60;;;;;;;;;;4997262;28;20195;-72
2021/09/05 14:17:32;;;;;;;10.60;7.40;;;;;;;;;;4985550;28;20198;-74